Time;durP1;ratioP1;P1;durP2;ratioP2;P2;SDS_P1;SDS_P2;PMS_P1;PMS_P2;Temp;Humidity;BMP_temperature;BMP_pressure;BME280_temperature;BME280_humidity;BME280_pressure;Samples;Min_cycle;Max_cycle;Signal;HPM_P1;HPM_P2
2024/01/03 00:02:12;;;;;;;;;;;;;;;9.57;78.55;96050.66;5108907;27;19931;-63
2024/01/03 00:05:00;;;;;;;;;;;;;;;9.68;77.38;96054.41;5101289;27;20387;-61
2024/01/03 00:07:48;;;;;;;;;;;;;;;9.71;77.46;96040.97;5098780;27;20006;-60
2024/01/03 00:10:41;;;;;;;;;;;;;;;9.78;76.97;96042.25;5093943;27;19927;-61
2024/01/03 00:13:48;;;;;;;;;;;;;;;9.74;76.58;96015.06;5101384;27;19920;-60
2024/01/03 00:16:39;;;;;;;;;;;;;;;9.61;76.83;96019.78;5108598;27;20371;-60
2024/01/03 00:19:27;;;;;;;;;;;;;;;9.65;76.55;96017.97;5103332;27;19926;-61
2024/01/03 00:22:15;;;;;;;;;;;;;;;9.57;76.33;96023.56;5102733;27;19919;-61
2024/01/03 00:25:09;;;;;;;;;;;;;;;9.59;76.06;96021.31;5099772;27;20039;-60
2024/01/03 00:27:59;;;;;;;;;;;;;;;9.56;76.07;96043.69;5098961;28;19942;-60
2024/01/03 00:30:47;;;;;;;;;;;;;;;9.65;76.17;96053.22;5092448;28;19926;-60
2024/01/03 00:33:38;;;;;;;;;;;;;;;9.61;75.73;96055.03;5113743;27;19920;-61
2024/01/03 00:36:26;;;;;;;;;;;;;;;9.65;75.30;96058.63;5099964;28;20232;-60
2024/01/03 00:39:14;;;;;;;;;;;;;;;9.60;75.35;96042.63;5117601;27;19939;-60
2024/01/03 00:42:03;;;;;;;;;;;;;;;9.70;74.58;96057.59;5110412;27;19981;-60
2024/01/03 00:44:51;;;;;;;;;;;;;;;9.70;73.92;96068.44;5067558;28;20121;-60
2024/01/03 00:47:39;;;;;;;;;;;;;;;9.75;73.52;96068.19;5095291;28;19920;-60
2024/01/03 00:50:29;;;;;;;;;;;;;;;9.68;73.06;96076.91;5094184;28;19927;-60
2024/01/03 00:53:17;;;;;;;;;;;;;;;9.66;73.07;96081.13;5082295;28;19920;-60
2024/01/03 00:56:09;;;;;;;;;;;;;;;9.68;73.53;96084.25;5100106;28;19920;-60
2024/01/03 00:58:58;;;;;;;;;;;;;;;9.75;73.30;96081.72;5108342;27;19920;-60
2024/01/03 01:01:46;;;;;;;;;;;;;;;9.78;72.52;96085.66;5105244;28;19931;-60
2024/01/03 01:04:34;;;;;;;;;;;;;;;9.75;72.49;96089.88;5092753;28;19931;-60
2024/01/03 01:07:24;;;;;;;;;;;;;;;9.79;72.41;96095.34;5071661;28;19943;-60
2024/01/03 01:10:12;;;;;;;;;;;;;;;9.77;72.61;96097.66;5079114;28;19926;-60
2024/01/03 01:13:00;;;;;;;;;;;;;;;9.77;72.56;96098.44;5090752;28;19946;-60
2024/01/03 01:15:48;;;;;;;;;;;;;;;9.77;72.58;96093.00;5102570;28;20265;-60
2024/01/03 01:18:38;;;;;;;;;;;;;;;9.75;72.67;96080.91;5098750;28;19920;-60
2024/01/03 01:21:27;;;;;;;;;;;;;;;9.70;72.39;96082.78;5120880;27;19920;-60
2024/01/03 01:24:16;;;;;;;;;;;;;;;9.68;73.18;96084.25;5102057;28;19935;-60
2024/01/03 01:27:06;;;;;;;;;;;;;;;9.76;72.57;96086.00;5096987;28;20392;-60
2024/01/03 01:29:55;;;;;;;;;;;;;;;9.70;73.13;96082.00;5107775;27;19920;-60
2024/01/03 01:32:43;;;;;;;;;;;;;;;9.68;73.07;96081.53;5097593;28;19924;-61
2024/01/03 01:35:31;;;;;;;;;;;;;;;9.74;72.95;96090.97;5099631;28;20373;-60
2024/01/03 01:38:19;;;;;;;;;;;;;;;9.74;73.01;96092.91;5102845;28;19920;-61
2024/01/03 01:41:09;;;;;;;;;;;;;;;9.77;72.84;96109.28;5096429;28;19927;-60
2024/01/03 01:43:57;;;;;;;;;;;;;;;9.76;73.40;96096.84;5076220;28;19924;-60
2024/01/03 01:46:45;;;;;;;;;;;;;;;9.68;73.10;96106.72;5082460;28;20600;-61
2024/01/03 01:49:33;;;;;;;;;;;;;;;9.73;74.17;96096.75;5075185;28;19931;-60
2024/01/03 01:52:22;;;;;;;;;;;;;;;9.75;73.84;96116.97;5081050;28;20226;-61
2024/01/03 01:55:10;;;;;;;;;;;;;;;9.71;73.82;96132.38;5075941;28;20446;-61
2024/01/03 01:57:59;;;;;;;;;;;;;;;9.68;73.52;96138.47;5082740;28;19935;-60
2024/01/03 02:00:48;;;;;;;;;;;;;;;9.65;73.46;96114.78;5082014;28;19927;-60
2024/01/03 02:03:36;;;;;;;;;;;;;;;9.62;73.77;96110.06;5071151;28;19932;-60
2024/01/03 02:06:24;;;;;;;;;;;;;;;9.54;73.47;96122.66;5084357;28;19998;-60
2024/01/03 02:09:12;;;;;;;;;;;;;;;9.55;73.54;96128.84;5074566;28;20396;-64
2024/01/03 02:12:01;;;;;;;;;;;;;;;9.53;73.40;96137.31;5101994;28;20019;-60
2024/01/03 02:14:50;;;;;;;;;;;;;;;9.51;72.71;96138.81;5099722;28;19927;-60
2024/01/03 02:17:38;;;;;;;;;;;;;;;9.41;73.27;96135.47;5100065;28;20400;-61
2024/01/03 02:20:27;;;;;;;;;;;;;;;9.34;72.65;96140.69;5085792;28;20257;-66
2024/01/03 02:23:17;;;;;;;;;;;;;;;9.38;72.07;96132.69;5101102;27;19919;-63
2024/01/03 02:26:05;;;;;;;;;;;;;;;9.40;71.70;96135.81;5092040;28;20269;-61
2024/01/03 02:29:00;;;;;;;;;;;;;;;9.32;71.38;96148.41;5097976;28;19931;-60
2024/01/03 02:31:48;;;;;;;;;;;;;;;9.39;70.71;96145.88;5102911;28;19927;-60
2024/01/03 02:34:37;;;;;;;;;;;;;;;9.24;70.59;96152.03;5103189;28;20264;-61
2024/01/03 02:37:25;;;;;;;;;;;;;;;9.34;70.66;96151.53;5099277;28;19924;-60
2024/01/03 02:40:14;;;;;;;;;;;;;;;9.37;70.47;96142.69;5105632;28;19924;-61
2024/01/03 02:43:02;;;;;;;;;;;;;;;9.38;70.24;96141.59;5102151;28;19967;-60
2024/01/03 02:45:50;;;;;;;;;;;;;;;9.38;70.66;96149.72;5104020;28;19924;-61
2024/01/03 02:48:40;;;;;;;;;;;;;;;9.38;70.02;96138.88;5095482;28;20003;-60
2024/01/03 02:51:28;;;;;;;;;;;;;;;9.32;70.25;96148.41;5094609;28;19920;-60
2024/01/03 02:54:16;;;;;;;;;;;;;;;9.38;70.23;96148.94;5088922;28;20295;-61
2024/01/03 02:57:06;;;;;;;;;;;;;;;9.33;70.62;96143.78;5102417;28;20136;-61
2024/01/03 02:59:54;;;;;;;;;;;;;;;9.38;70.39;96148.94;5106548;27;20283;-60
2024/01/03 03:02:43;;;;;;;;;;;;;;;9.35;71.02;96152.31;5108707;27;20366;-60
2024/01/03 03:05:32;;;;;;;;;;;;;;;9.36;71.30;96157.41;5104657;28;20049;-60
2024/01/03 03:08:20;;;;;;;;;;;;;;;9.35;71.23;96163.16;5106297;27;19938;-60
2024/01/03 03:11:08;;;;;;;;;;;;;;;9.36;71.36;96157.41;5104097;27;19970;-62
2024/01/03 03:13:57;;;;;;;;;;;;;;;9.32;71.48;96158.44;5108090;28;19972;-61
2024/01/03 03:16:46;;;;;;;;;;;;;;;9.33;71.55;96154.59;5104460;27;19924;-61
2024/01/03 03:19:34;;;;;;;;;;;;;;;9.33;71.81;96154.59;5109174;28;19920;-60
2024/01/03 03:22:22;;;;;;;;;;;;;;;9.34;71.37;96159.66;5104606;28;20417;-60
2024/01/03 03:25:11;;;;;;;;;;;;;;;9.27;71.70;96155.97;5106351;28;19927;-60
2024/01/03 03:27:59;;;;;;;;;;;;;;;9.32;71.51;96163.84;5100819;27;19927;-61
2024/01/03 03:30:49;;;;;;;;;;;;;;;9.33;71.27;96158.09;5102351;28;19943;-60
2024/01/03 03:33:38;;;;;;;;;;;;;;;9.34;71.61;96164.31;5100889;28;19927;-60
2024/01/03 03:36:29;;;;;;;;;;;;;;;9.35;71.43;96168.59;5104522;28;19920;-60
2024/01/03 03:39:17;;;;;;;;;;;;;;;9.28;71.91;96168.41;5106827;28;19939;-60
2024/01/03 03:42:05;;;;;;;;;;;;;;;9.31;71.51;96163.06;5099571;27;19924;-60
2024/01/03 03:44:54;;;;;;;;;;;;;;;9.30;71.44;96161.50;5095865;28;20054;-60
2024/01/03 03:47:44;;;;;;;;;;;;;;;9.27;72.32;96174.94;5109716;27;20327;-60
2024/01/03 03:50:32;;;;;;;;;;;;;;;9.32;71.97;96153.81;5096938;27;19932;-60
2024/01/03 03:53:20;;;;;;;;;;;;;;;9.29;73.13;96159.91;5106953;27;19923;-60
2024/01/03 03:56:08;;;;;;;;;;;;;;;9.27;73.61;96151.34;5098361;28;19942;-60
2024/01/03 03:58:57;;;;;;;;;;;;;;;9.25;73.64;96159.03;5100991;27;20368;-61
2024/01/03 04:01:48;;;;;;;;;;;;;;;9.29;73.98;96149.09;5086877;28;20254;-60
2024/01/03 04:04:37;;;;;;;;;;;;;;;9.21;74.79;96152.72;5087472;28;19982;-61
2024/01/03 04:07:26;;;;;;;;;;;;;;;9.19;74.68;96147.66;5070858;28;20337;-60
2024/01/03 04:10:14;;;;;;;;;;;;;;;9.02;75.62;96149.88;5069542;28;20274;-60
2024/01/03 04:13:03;;;;;;;;;;;;;;;9.12;75.56;96138.53;5076013;28;20306;-61
2024/01/03 04:15:51;;;;;;;;;;;;;;;8.92;76.08;96138.38;5076818;28;19921;-61
2024/01/03 04:18:39;;;;;;;;;;;;;;;9.02;75.96;96141.75;5083971;28;20273;-61
2024/01/03 04:21:29;;;;;;;;;;;;;;;9.01;76.16;96142.88;5078986;28;20045;-61
2024/01/03 04:24:17;;;;;;;;;;;;;;;9.01;75.65;96161.84;5091641;28;19933;-61
2024/01/03 04:27:05;;;;;;;;;;;;;;;9.13;75.25;96172.63;5084863;27;19920;-61
2024/01/03 04:29:53;;;;;;;;;;;;;;;8.98;76.14;96159.81;5107306;27;19929;-60
2024/01/03 04:32:41;;;;;;;;;;;;;;;9.12;75.52;96160.22;5095562;28;19927;-60
2024/01/03 04:35:29;;;;;;;;;;;;;;;9.09;74.88;96166.31;5096528;27;19969;-60
2024/01/03 04:38:19;;;;;;;;;;;;;;;8.96;74.65;96167.50;5099970;27;19933;-60
2024/01/03 04:41:07;;;;;;;;;;;;;;;9.16;74.18;96167.31;5073206;28;20002;-60
2024/01/03 04:43:55;;;;;;;;;;;;;;;9.21;73.96;96163.56;5072039;28;20254;-63
2024/01/03 04:46:43;;;;;;;;;;;;;;;9.16;74.03;96163.78;5075109;28;20331;-60
2024/01/03 04:49:32;;;;;;;;;;;;;;;9.20;73.91;96172.81;5076603;28;20034;-62
2024/01/03 04:52:20;;;;;;;;;;;;;;;9.23;74.17;96174.84;5081371;28;20349;-60
2024/01/03 04:55:10;;;;;;;;;;;;;;;9.27;74.54;96167.63;5082027;28;20083;-60
2024/01/03 04:57:58;;;;;;;;;;;;;;;9.26;75.13;96166.03;5083123;28;20021;-61
2024/01/03 05:00:46;;;;;;;;;;;;;;;9.26;75.21;96157.88;5072687;28;20403;-61
2024/01/03 05:03:35;;;;;;;;;;;;;;;9.18;76.05;96153.41;5098361;27;19931;-60
2024/01/03 05:06:23;;;;;;;;;;;;;;;9.18;76.19;96165.03;5087131;28;19920;-61
2024/01/03 05:09:11;;;;;;;;;;;;;;;9.09;76.26;96166.31;5096165;28;19932;-60
2024/01/03 05:12:02;;;;;;;;;;;;;;;9.07;76.40;96146.91;5111881;28;20022;-61
2024/01/03 05:14:50;;;;;;;;;;;;;;;9.05;76.77;96160.00;5099557;28;19942;-61
2024/01/03 05:17:39;;;;;;;;;;;;;;;9.21;75.14;96168.97;5091550;28;19987;-60
2024/01/03 05:20:27;;;;;;;;;;;;;;;9.29;75.58;96159.13;5096839;28;19924;-60
2024/01/03 05:23:15;;;;;;;;;;;;;;;9.26;74.85;96176.06;5095395;28;19920;-61
2024/01/03 05:26:03;;;;;;;;;;;;;;;9.27;73.94;96173.03;5094639;28;20284;-61
2024/01/03 05:28:52;;;;;;;;;;;;;;;9.43;73.59;96182.00;5101715;28;20383;-61
2024/01/03 05:31:41;;;;;;;;;;;;;;;9.57;72.02;96192.44;5092261;28;19920;-61
2024/01/03 05:34:28;;;;;;;;;;;;;;;9.38;72.27;96195.81;5095934;28;19927;-60
2024/01/03 05:37:17;;;;;;;;;;;;;;;9.75;71.54;96203.75;5102295;28;20056;-61
2024/01/03 05:40:06;;;;;;;;;;;;;;;9.92;70.70;96208.06;5096201;28;19992;-61
2024/01/03 05:42:54;;;;;;;;;;;;;;;9.95;70.12;96210.84;5103449;28;19929;-60
2024/01/03 05:45:43;;;;;;;;;;;;;;;9.85;69.58;96216.78;5099894;28;20070;-60
2024/01/03 05:48:32;;;;;;;;;;;;;;;9.84;69.28;96212.50;5097799;28;19927;-61
2024/01/03 05:51:21;;;;;;;;;;;;;;;10.08;69.44;96210.81;5092940;28;19920;-60
2024/01/03 05:54:09;;;;;;;;;;;;;;;10.20;69.43;96214.22;5103930;27;19927;-61
2024/01/03 05:56:59;;;;;;;;;;;;;;;10.27;68.69;96208.19;5097956;28;19932;-61
2024/01/03 05:59:47;;;;;;;;;;;;;;;10.25;68.32;96218.63;5097914;28;20384;-61
2024/01/03 06:02:37;;;;;;;;;;;;;;;10.08;69.24;96219.72;5107176;28;19927;-61
2024/01/03 06:05:26;;;;;;;;;;;;;;;10.18;69.38;96226.56;5103803;27;20280;-60
2024/01/03 06:08:14;;;;;;;;;;;;;;;10.17;68.35;96230.41;5101453;27;19920;-61
2024/01/03 06:11:02;;;;;;;;;;;;;;;10.17;69.27;96236.63;5107551;27;20638;-61
2024/01/03 06:13:51;;;;;;;;;;;;;;;10.21;68.79;96248.34;5100393;28;19920;-61
2024/01/03 06:16:39;;;;;;;;;;;;;;;10.00;69.62;96241.59;5098940;28;19976;-60
2024/01/03 06:19:28;;;;;;;;;;;;;;;9.94;68.42;96251.91;5102681;27;19920;-60
2024/01/03 06:22:16;;;;;;;;;;;;;;;10.00;69.28;96241.59;5104513;27;19920;-60
2024/01/03 06:25:05;;;;;;;;;;;;;;;9.97;67.46;96254.72;5102683;27;20281;-60
2024/01/03 06:27:54;;;;;;;;;;;;;;;10.14;66.87;96248.19;5107857;27;19920;-60
2024/01/03 06:30:43;;;;;;;;;;;;;;;10.22;66.80;96252.63;5111400;27;19927;-61
2024/01/03 06:33:31;;;;;;;;;;;;;;;10.32;66.91;96254.06;5091512;28;19935;-60
2024/01/03 06:36:21;;;;;;;;;;;;;;;10.16;66.23;96245.88;5100318;28;19924;-60
2024/01/03 06:39:11;;;;;;;;;;;;;;;10.06;66.65;96256.47;5104038;28;19926;-61
2024/01/03 06:41:59;;;;;;;;;;;;;;;9.87;66.61;96260.66;5104379;27;19923;-60
2024/01/03 06:44:48;;;;;;;;;;;;;;;10.21;65.84;96264.63;5109681;27;19919;-61
2024/01/03 06:47:36;;;;;;;;;;;;;;;10.18;65.13;96270.00;5104021;28;20372;-60
2024/01/03 06:50:24;;;;;;;;;;;;;;;10.28;65.75;96272.22;5103983;27;19927;-60
2024/01/03 06:53:14;;;;;;;;;;;;;;;10.06;65.30;96272.75;5103891;27;19924;-61
2024/01/03 06:56:02;;;;;;;;;;;;;;;10.20;64.30;96284.78;5099957;27;19920;-60
2024/01/03 06:58:50;;;;;;;;;;;;;;;10.32;64.49;96278.50;5109058;28;19939;-61
2024/01/03 07:01:38;;;;;;;;;;;;;;;10.40;63.75;96293.06;5101818;28;20357;-60
2024/01/03 07:04:26;;;;;;;;;;;;;;;10.49;63.45;96297.19;5102995;27;19966;-60
2024/01/03 07:07:16;;;;;;;;;;;;;;;10.33;64.23;96301.78;5099968;27;19936;-60
2024/01/03 07:10:07;;;;;;;;;;;;;;;10.38;63.97;96289.88;5104766;27;19932;-61
2024/01/03 07:12:55;;;;;;;;;;;;;;;10.23;64.46;96291.44;5103622;28;20014;-61
2024/01/03 07:15:47;;;;;;;;;;;;;;;10.17;64.80;96290.09;5102520;27;20470;-62
2024/01/03 07:18:35;;;;;;;;;;;;;;;10.18;64.39;96288.97;5110011;27;19927;-61
2024/01/03 07:21:25;;;;;;;;;;;;;;;10.09;65.22;96289.13;5091255;27;19924;-60
2024/01/03 07:24:13;;;;;;;;;;;;;;;10.11;65.38;96286.84;5104260;27;19998;-60
2024/01/03 07:27:03;;;;;;;;;;;;;;;9.95;66.34;96294.97;5098378;28;20272;-60
2024/01/03 07:29:54;;;;;;;;;;;;;;;9.92;66.12;96278.59;5108942;27;20437;-60
2024/01/03 07:32:42;;;;;;;;;;;;;;;9.63;67.28;96298.72;5105353;27;19924;-60
2024/01/03 07:35:30;;;;;;;;;;;;;;;9.90;65.97;96291.69;5107979;28;20405;-60
2024/01/03 07:38:18;;;;;;;;;;;;;;;9.68;66.74;96282.97;5092686;27;19927;-60
2024/01/03 07:41:07;;;;;;;;;;;;;;;9.83;66.74;96286.88;5104972;27;19942;-60
2024/01/03 07:43:57;;;;;;;;;;;;;;;9.73;66.85;96284.66;5110386;27;20391;-60
2024/01/03 07:46:46;;;;;;;;;;;;;;;9.94;66.82;96289.88;5107333;27;20007;-60
2024/01/03 07:49:34;;;;;;;;;;;;;;;10.04;66.54;96296.75;5095267;27;20035;-59
2024/01/03 07:52:22;;;;;;;;;;;;;;;9.91;66.99;96288.66;5107328;27;19968;-59
2024/01/03 07:55:15;;;;;;;;;;;;;;;10.00;67.19;96298.56;5104714;27;20545;-60
2024/01/03 07:58:03;;;;;;;;;;;;;;;9.92;66.96;96289.44;5101665;27;19919;-60
2024/01/03 08:00:53;;;;;;;;;;;;;;;9.93;67.12;96291.03;5106701;27;20387;-59
2024/01/03 08:03:41;;;;;;;;;;;;;;;9.79;67.44;96283.28;5109739;27;19938;-59
2024/01/03 08:06:29;;;;;;;;;;;;;;;9.88;67.42;96289.34;5106095;28;20518;-59
2024/01/03 08:09:18;;;;;;;;;;;;;;;9.97;67.14;96292.69;5105591;28;20006;-59
2024/01/03 08:12:08;;;;;;;;;;;;;;;9.87;67.49;96287.78;5105915;27;19920;-59
2024/01/03 08:14:56;;;;;;;;;;;;;;;9.76;67.50;96297.53;5101835;28;19928;-59
2024/01/03 08:17:46;;;;;;;;;;;;;;;9.92;67.00;96295.66;5103987;28;19950;-59
2024/01/03 08:20:34;;;;;;;;;;;;;;;9.87;67.16;96309.47;5106669;27;19970;-59
2024/01/03 08:23:23;;;;;;;;;;;;;;;9.80;67.60;96298.44;5102910;28;20301;-59
2024/01/03 08:26:11;;;;;;;;;;;;;;;9.94;66.57;96298.03;5102228;28;19946;-59
2024/01/03 08:28:59;;;;;;;;;;;;;;;9.91;66.47;96288.66;5097872;27;19920;-60
2024/01/03 08:31:47;;;;;;;;;;;;;;;9.85;66.47;96284.59;5103143;28;19931;-59
2024/01/03 08:34:36;;;;;;;;;;;;;;;10.22;65.63;96287.13;5107809;28;19923;-59
2024/01/03 08:37:25;;;;;;;;;;;;;;;10.49;65.21;96282.81;5101073;28;19919;-59
2024/01/03 08:40:13;;;;;;;;;;;;;;;10.32;64.84;96286.66;5106537;28;19920;-59
2024/01/03 08:43:02;;;;;;;;;;;;;;;10.37;64.75;96293.75;5105978;28;20018;-59
2024/01/03 08:45:53;;;;;;;;;;;;;;;9.89;65.74;96285.50;5098923;28;21367;-59
2024/01/03 08:48:42;;;;;;;;;;;;;;;10.21;64.60;96280.13;5106327;28;19946;-59
2024/01/03 08:51:32;;;;;;;;;;;;;;;10.20;65.35;96282.06;5096747;28;20024;-59
2024/01/03 08:54:20;;;;;;;;;;;;;;;10.22;66.67;96279.78;5099750;28;19920;-59
2024/01/03 08:57:09;;;;;;;;;;;;;;;10.45;67.01;96282.72;5100802;28;19919;-59
2024/01/03 08:59:57;;;;;;;;;;;;;;;10.58;65.69;96282.63;5103860;28;19920;-59
2024/01/03 09:02:45;;;;;;;;;;;;;;;10.30;64.26;96277.28;5097376;28;19920;-60
2024/01/03 09:05:33;;;;;;;;;;;;;;;10.30;64.96;96280.00;5099769;28;19955;-59
2024/01/03 09:08:24;;;;;;;;;;;;;;;10.12;65.80;96276.78;5101912;28;19927;-59
2024/01/03 09:11:12;;;;;;;;;;;;;;;10.16;64.82;96278.47;5100101;28;19959;-59
2024/01/03 09:14:02;;;;;;;;;;;;;;;10.17;65.78;96258.34;5099693;28;19920;-59
2024/01/03 09:16:50;;;;;;;;;;;;;;;10.04;65.94;96275.03;5102810;28;20003;-59
2024/01/03 09:19:38;;;;;;;;;;;;;;;9.92;66.43;96282.09;5103798;28;20431;-59
2024/01/03 09:22:27;;;;;;;;;;;;;;;9.89;66.59;96274.66;5098565;28;19932;-59
2024/01/03 09:25:19;;;;;;;;;;;;;;;10.06;66.09;96281.69;5099992;28;19965;-59
2024/01/03 09:28:10;;;;;;;;;;;;;;;10.34;66.11;96278.97;5082095;28;19920;-59
2024/01/03 09:30:58;;;;;;;;;;;;;;;10.47;65.42;96283.16;5065706;28;19920;-59
2024/01/03 09:33:47;;;;;;;;;;;;;;;10.35;65.14;96285.97;5082975;28;19920;-59
2024/01/03 09:36:35;;;;;;;;;;;;;;;10.30;64.57;96274.56;5073206;28;19921;-59
2024/01/03 09:39:23;;;;;;;;;;;;;;;10.33;65.19;96277.38;5080773;28;19920;-59
2024/01/03 09:42:12;;;;;;;;;;;;;;;10.19;65.17;96282.41;5076061;28;19920;-63
2024/01/03 09:45:01;;;;;;;;;;;;;;;10.37;65.50;96280.97;5081353;28;20395;-60
2024/01/03 09:47:49;;;;;;;;;;;;;;;10.33;65.80;96266.50;5103846;27;19920;-59
2024/01/03 09:50:37;;;;;;;;;;;;;;;10.42;66.19;96272.56;5108892;27;19931;-59
2024/01/03 09:53:27;;;;;;;;;;;;;;;10.34;66.53;96273.53;5104214;28;19954;-59
2024/01/03 09:56:16;;;;;;;;;;;;;;;10.36;66.14;96270.47;5106434;27;19932;-59
2024/01/03 09:59:09;;;;;;;;;;;;;;;10.25;67.45;96262.06;5106001;27;19924;-59
2024/01/03 10:01:58;;;;;;;;;;;;;;;10.28;67.27;96260.56;5105362;27;19926;-59
2024/01/03 10:04:46;;;;;;;;;;;;;;;10.30;67.43;96261.00;5096470;28;19927;-59
2024/01/03 10:07:35;;;;;;;;;;;;;;;10.25;67.13;96264.75;5104208;28;20279;-59
2024/01/03 10:10:31;;;;;;;;;;;;;;;10.27;67.68;96265.19;5091641;28;19920;-59
2024/01/03 10:13:19;;;;;;;;;;;;;;;10.39;67.63;96267.84;5100990;27;19927;-59
2024/01/03 10:16:11;;;;;;;;;;;;;;;10.48;67.94;96268.44;5104611;28;19927;-59
2024/01/03 10:19:09;;;;;;;;;;;;;;;10.51;67.48;96271.63;5098998;27;19931;-59
2024/01/03 10:21:59;;;;;;;;;;;;;;;10.77;67.03;96263.72;5106408;28;20333;-59
2024/01/03 10:24:47;;;;;;;;;;;;;;;10.80;66.86;96267.63;5107476;28;19943;-59
2024/01/03 10:27:35;;;;;;;;;;;;;;;10.80;67.04;96263.00;5101257;28;19920;-59
2024/01/03 10:30:23;;;;;;;;;;;;;;;10.71;66.84;96265.13;5106902;28;19923;-59
2024/01/03 10:33:12;;;;;;;;;;;;;;;10.80;66.08;96263.00;5106133;27;19920;-59
2024/01/03 10:36:01;;;;;;;;;;;;;;;10.63;65.87;96253.28;5103485;27;20081;-60
2024/01/03 10:38:49;;;;;;;;;;;;;;;10.76;66.01;96254.00;5102922;28;19972;-59
2024/01/03 10:41:37;;;;;;;;;;;;;;;10.83;65.50;96251.44;5101386;27;20344;-59
2024/01/03 10:44:27;;;;;;;;;;;;;;;10.92;65.02;96245.78;5106379;27;19939;-59
2024/01/03 10:47:16;;;;;;;;;;;;;;;10.91;64.61;96242.28;5100298;27;19920;-59
2024/01/03 10:50:06;;;;;;;;;;;;;;;10.87;64.82;96235.22;5106142;27;19931;-59
2024/01/03 10:52:56;;;;;;;;;;;;;;;10.98;64.67;96230.81;5100140;28;20344;-59
2024/01/03 10:55:44;;;;;;;;;;;;;;;10.99;63.89;96233.16;5101030;27;19934;-60
2024/01/03 10:58:36;;;;;;;;;;;;;;;11.04;64.27;96225.88;5102346;28;19927;-59
2024/01/03 11:01:27;;;;;;;;;;;;;;;10.93;64.83;96228.38;5103399;27;20383;-59
2024/01/03 11:04:16;;;;;;;;;;;;;;;11.04;64.52;96236.75;5105138;27;19920;-59
2024/01/03 11:07:09;;;;;;;;;;;;;;;10.88;63.75;96243.00;5108589;27;19968;-59
2024/01/03 11:09:57;;;;;;;;;;;;;;;10.98;64.13;96231.59;5099942;28;19932;-59
2024/01/03 11:12:46;;;;;;;;;;;;;;;10.78;64.36;96227.25;5095944;27;19973;-59
2024/01/03 11:15:34;;;;;;;;;;;;;;;10.86;65.08;96233.63;5106295;28;19928;-59
2024/01/03 11:18:46;;;;;;;;;;;;;;;10.74;67.06;96234.53;5106209;28;20002;-59
2024/01/03 11:21:42;;;;;;;;;;;;;;;10.78;67.16;96227.25;5097929;28;19974;-59
2024/01/03 11:24:52;;;;;;;;;;;;;;;10.78;67.48;96224.53;5107753;28;19926;-59
2024/01/03 11:27:42;;;;;;;;;;;;;;;10.63;68.19;96228.84;5097202;27;19920;-59
2024/01/03 11:30:42;;;;;;;;;;;;;;;10.76;68.50;96224.13;5105072;27;19920;-59
2024/01/03 11:33:31;;;;;;;;;;;;;;;10.78;68.36;96221.81;5106322;27;19934;-60
2024/01/03 11:36:35;;;;;;;;;;;;;;;10.84;68.54;96223.13;5106309;28;19999;-59
2024/01/03 11:39:32;;;;;;;;;;;;;;;10.80;68.62;96229.59;5100608;28;19938;-59
2024/01/03 11:42:21;;;;;;;;;;;;;;;10.53;69.91;96223.94;5103532;27;19927;-60
2024/01/03 11:45:13;;;;;;;;;;;;;;;10.76;69.75;96232.25;5099832;27;19949;-60
2024/01/03 11:48:01;;;;;;;;;;;;;;;10.80;69.80;96233.09;5104204;28;19920;-59
2024/01/03 11:50:50;;;;;;;;;;;;;;;10.75;70.04;96246.97;5100774;27;19928;-60
2024/01/03 11:53:38;;;;;;;;;;;;;;;10.69;70.03;96238.28;5107966;28;20328;-60
2024/01/03 11:56:27;;;;;;;;;;;;;;;10.48;69.93;96245.94;5099612;28;19926;-60
2024/01/03 11:59:19;;;;;;;;;;;;;;;10.54;71.00;96246.44;5106640;27;20290;-60
2024/01/03 12:02:12;;;;;;;;;;;;;;;10.46;71.65;96234.66;5104830;27;19927;-60
2024/01/03 12:05:01;;;;;;;;;;;;;;;10.48;71.82;96219.56;5099704;27;19931;-60
2024/01/03 12:07:49;;;;;;;;;;;;;;;10.50;71.73;96216.53;5103899;27;19976;-60
2024/01/03 12:10:41;;;;;;;;;;;;;;;10.44;71.43;96223.38;5100043;28;20002;-60
2024/01/03 12:13:29;;;;;;;;;;;;;;;10.33;70.55;96217.66;5103665;28;19920;-65
2024/01/03 12:16:17;;;;;;;;;;;;;;;10.42;70.32;96225.63;5099317;27;19927;-59
2024/01/03 12:19:06;;;;;;;;;;;;;;;10.38;71.02;96217.38;5103595;28;20060;-59
2024/01/03 12:21:56;;;;;;;;;;;;;;;10.44;70.79;96213.28;5102633;28;20009;-59
2024/01/03 12:24:44;;;;;;;;;;;;;;;10.32;70.46;96218.00;5102622;28;20001;-58
2024/01/03 12:27:33;;;;;;;;;;;;;;;10.33;70.49;96225.00;5109520;27;19932;-58
2024/01/03 12:30:22;;;;;;;;;;;;;;;10.34;70.55;96237.47;5088229;28;20397;-58
2024/01/03 12:33:13;;;;;;;;;;;;;;;10.43;69.58;96238.84;5103243;28;19924;-58
2024/01/03 12:36:05;;;;;;;;;;;;;;;10.46;70.15;96234.66;5101218;27;20006;-58
2024/01/03 12:38:58;;;;;;;;;;;;;;;10.59;70.32;96232.63;5104713;27;19923;-58
2024/01/03 12:41:46;;;;;;;;;;;;;;;10.65;69.66;96220.34;5106660;27;19920;-58
2024/01/03 12:44:34;;;;;;;;;;;;;;;10.55;68.61;96226.34;5106532;28;19927;-59
2024/01/03 12:47:24;;;;;;;;;;;;;;;10.66;68.41;96211.06;5104146;27;19926;-59
2024/01/03 12:50:12;;;;;;;;;;;;;;;10.63;68.42;96212.56;5100509;28;19926;-58
2024/01/03 12:53:01;;;;;;;;;;;;;;;10.61;68.12;96223.00;5107352;28;19919;-58
2024/01/03 12:55:49;;;;;;;;;;;;;;;10.54;68.89;96232.88;5105435;28;19924;-59
2024/01/03 12:58:37;;;;;;;;;;;;;;;10.52;68.97;96235.97;5102676;28;19919;-59
2024/01/03 13:01:25;;;;;;;;;;;;;;;10.53;69.39;96223.16;5100045;27;19927;-58
2024/01/03 13:04:13;;;;;;;;;;;;;;;10.65;69.24;96217.63;5101364;27;19942;-58
2024/01/03 13:07:02;;;;;;;;;;;;;;;10.71;69.28;96227.09;5099625;28;20318;-58
2024/01/03 13:09:52;;;;;;;;;;;;;;;10.63;69.87;96225.34;5102821;28;20027;-58
2024/01/03 13:12:40;;;;;;;;;;;;;;;10.62;69.60;96231.91;5101364;28;19984;-58
2024/01/03 13:15:28;;;;;;;;;;;;;;;10.47;70.25;96231.56;5101332;28;20258;-60
2024/01/03 13:18:16;;;;;;;;;;;;;;;10.58;70.18;96234.53;5096795;28;19943;-58
2024/01/03 13:21:04;;;;;;;;;;;;;;;10.57;70.55;96229.47;5101783;28;19920;-59
2024/01/03 13:23:54;;;;;;;;;;;;;;;10.63;70.43;96211.75;5107681;28;19931;-58
2024/01/03 13:26:44;;;;;;;;;;;;;;;10.72;70.76;96207.72;5089291;28;19931;-58
2024/01/03 13:29:32;;;;;;;;;;;;;;;10.80;69.52;96205.16;5103319;28;20262;-59
2024/01/03 13:32:20;;;;;;;;;;;;;;;10.61;69.73;96214.84;5105879;28;19932;-59
2024/01/03 13:35:08;;;;;;;;;;;;;;;10.79;69.08;96201.66;5103478;28;19980;-59
2024/01/03 13:37:56;;;;;;;;;;;;;;;10.81;69.77;96212.94;5101695;28;20588;-58
2024/01/03 13:40:46;;;;;;;;;;;;;;;10.90;69.81;96220.91;5104390;28;20368;-58
2024/01/03 13:43:35;;;;;;;;;;;;;;;10.85;69.82;96227.41;5102181;28;20343;-58
2024/01/03 13:46:25;;;;;;;;;;;;;;;10.87;71.16;96243.38;5107377;28;19943;-58
2024/01/03 13:49:13;;;;;;;;;;;;;;;10.77;72.55;96206.66;5104867;28;19926;-59
2024/01/03 13:52:04;;;;;;;;;;;;;;;10.60;73.32;96207.84;5101921;28;19927;-58
2024/01/03 13:54:52;;;;;;;;;;;;;;;10.35;74.62;96223.53;5099530;28;20314;-58
2024/01/03 13:57:40;;;;;;;;;;;;;;;10.36;74.81;96208.03;5103597;28;19931;-58
2024/01/03 14:00:30;;;;;;;;;;;;;;;10.09;75.49;96239.50;5103570;28;20442;-58
2024/01/03 14:03:18;;;;;;;;;;;;;;;10.09;74.46;96193.38;5109910;28;19927;-58
2024/01/03 14:06:08;;;;;;;;;;;;;;;10.19;74.62;96217.28;5104622;28;20498;-58
2024/01/03 14:08:56;;;;;;;;;;;;;;;10.14;75.53;96187.69;5102945;28;19930;-58
2024/01/03 14:11:44;;;;;;;;;;;;;;;10.02;76.13;96201.34;5096052;28;19924;-59
2024/01/03 14:14:32;;;;;;;;;;;;;;;10.24;75.04;96198.06;5112971;27;20092;-59
2024/01/03 14:17:23;;;;;;;;;;;;;;;10.31;75.95;96200.94;5103265;28;19965;-58
2024/01/03 14:20:13;;;;;;;;;;;;;;;10.39;75.72;96204.63;5090287;27;19924;-59
2024/01/03 14:23:03;;;;;;;;;;;;;;;10.36;75.78;96210.75;5103184;27;19920;-58
2024/01/03 14:25:52;;;;;;;;;;;;;;;10.20;76.86;96197.94;5107154;27;19927;-58
2024/01/03 14:28:41;;;;;;;;;;;;;;;10.15;75.73;96200.91;5106541;27;19935;-58
2024/01/03 14:31:29;;;;;;;;;;;;;;;10.19;75.39;96201.00;5108422;27;20378;-58
2024/01/03 14:34:18;;;;;;;;;;;;;;;10.34;75.10;96196.75;5118043;27;20039;-58
2024/01/03 14:37:07;;;;;;;;;;;;;;;10.32;75.02;96210.66;5109009;27;20456;-59
2024/01/03 14:40:04;;;;;;;;;;;;;;;10.22;74.16;96205.72;5106802;28;19919;-58
2024/01/03 14:42:54;;;;;;;;;;;;;;;10.27;73.79;96202.75;5106481;27;19930;-59
2024/01/03 14:45:42;;;;;;;;;;;;;;;10.30;73.33;96204.78;5109958;28;19924;-58
2024/01/03 14:48:30;;;;;;;;;;;;;;;10.33;72.13;96185.06;5104824;28;19998;-58